Time;durP1;ratioP1;P1;durP2;ratioP2;P2;SDS_P1;SDS_P2;PMS_P1;PMS_P2;Temp;Humidity;BMP_temperature;BMP_pressure;BME280_temperature;BME280_humidity;BME280_pressure;Samples;Min_cycle;Max_cycle;Signal;HPM_P1;HPM_P2
2023/08/25 00:01:18;;;;;;;10.63;3.63;;;19.70;99.90;;;18.81;100.00;100701.44;4960690;28;20475;-78
2023/08/25 00:03:44;;;;;;;8.80;4.15;;;19.60;99.90;;;18.74;100.00;100698.38;4948137;28;20581;-79
2023/08/25 00:06:14;;;;;;;11.52;3.78;;;19.60;99.90;;;18.78;100.00;100701.69;4949755;28;20118;-78
2023/08/25 00:08:40;;;;;;;9.63;4.18;;;19.60;99.90;;;18.78;100.00;100693.69;4952435;28;20031;-79
2023/08/25 00:11:06;;;;;;;12.40;4.65;;;19.60;99.90;;;18.77;100.00;100686.66;4935056;28;21502;-78
2023/08/25 00:13:35;;;;;;;11.27;3.92;;;19.60;99.90;;;18.72;100.00;100681.66;4935127;28;20034;-78
2023/08/25 00:16:05;;;;;;;9.07;4.10;;;19.60;99.90;;;18.65;100.00;100683.97;4942770;28;20505;-78
2023/08/25 00:18:32;;;;;;;9.27;4.22;;;19.50;99.90;;;18.52;100.00;100682.44;4947578;28;20030;-77
2023/08/25 00:20:57;;;;;;;8.30;4.05;;;19.50;99.90;;;18.61;100.00;100669.19;4962402;28;20082;-78
2023/08/25 00:23:23;;;;;;;12.50;4.65;;;19.50;99.90;;;18.62;100.00;100673.56;4950669;28;20122;-78
2023/08/25 00:25:49;;;;;;;10.52;4.75;;;19.50;99.90;;;18.53;100.00;100670.78;4945757;28;20142;-79
2023/08/25 00:28:15;;;;;;;11.40;4.35;;;19.40;99.90;;;18.52;100.00;100672.63;4953414;28;20027;-78
2023/08/25 00:30:40;;;;;;;8.95;4.50;;;19.40;99.90;;;18.54;100.00;100662.69;4947566;28;20130;-79
2023/08/25 00:33:12;;;;;;;10.18;4.45;;;19.30;99.90;;;18.51;100.00;100665.59;4955924;23;20070;-78
2023/08/25 00:35:41;;;;;;;10.23;4.60;;;19.40;99.90;;;18.49;100.00;100670.22;4974337;28;20934;-78
2023/08/25 00:38:07;;;;;;;8.48;4.95;;;19.40;99.90;;;18.49;100.00;100666.69;4976175;28;20043;-78
2023/08/25 00:40:38;;;;;;;14.30;5.60;;;19.40;99.90;;;18.57;100.00;100665.09;4962563;28;20069;-78
2023/08/25 00:43:04;;;;;;;21.20;5.97;;;19.40;99.90;;;18.45;100.00;100676.75;4969923;28;20026;-78
2023/08/25 00:45:38;;;;;;;11.05;5.72;;;19.40;99.90;;;18.52;100.00;100669.94;4965202;28;20033;-78
2023/08/25 00:48:05;;;;;;;16.60;6.20;;;19.40;99.90;;;18.55;100.00;100680.38;4965667;28;20018;-78
2023/08/25 00:50:32;;;;;;;16.60;5.93;;;19.40;99.90;;;18.52;100.00;100672.63;4961728;28;20465;-78
2023/08/25 00:52:58;;;;;;;14.45;6.20;;;19.30;99.90;;;18.50;100.00;100674.56;4968017;23;20027;-78
2023/08/25 00:55:37;;;;;;;15.15;6.80;;;;;;;18.55;100.00;100682.19;4978137;28;20039;-79
2023/08/25 00:58:07;;;;;;;16.15;7.07;;;19.40;99.90;;;18.58;100.00;100674.78;4963330;28;20031;-78
2023/08/25 01:00:38;;;;;;;12.23;6.72;;;19.40;99.90;;;18.60;100.00;100672.84;4956668;28;20019;-78
2023/08/25 01:03:05;;;;;;;16.83;8.05;;;19.40;99.90;;;18.56;100.00;100658.06;4976247;28;20038;-78
2023/08/25 01:05:30;;;;;;;18.45;7.50;;;19.40;99.90;;;18.53;100.00;100653.00;4970107;28;20042;-79
2023/08/25 01:07:57;;;;;;;13.68;7.68;;;19.40;99.90;;;18.54;100.00;100653.84;4955740;28;20034;-79
2023/08/25 01:10:33;;;;;;;18.40;9.27;;;19.40;99.90;;;18.50;100.00;100647.91;4974122;28;20027;-79
2023/08/25 01:13:16;;;;;;;13.65;8.63;;;19.40;99.90;;;18.47;100.00;100637.50;4993264;28;20027;-79
2023/08/25 01:15:49;;;;;;;17.55;8.75;;;19.40;99.90;;;18.51;100.00;100638.94;4975862;28;20110;-79
2023/08/25 01:18:32;;;;;;;19.08;9.25;;;19.40;99.90;;;18.45;100.00;100628.78;4962562;28;20038;-80
2023/08/25 01:21:00;;;;;;;19.95;9.98;;;19.40;99.90;;;18.43;100.00;100622.72;4994129;28;20027;-79
2023/08/25 01:23:35;;;;;;;15.32;9.10;;;19.30;99.90;;;18.41;100.00;100624.66;4975730;28;20417;-80
2023/08/25 01:26:05;;;;;;;17.75;9.90;;;19.40;99.90;;;18.48;100.00;100619.69;4975344;28;20425;-80
2023/08/25 01:28:31;;;;;;;16.02;9.65;;;19.30;99.90;;;18.52;100.00;100607.78;4975968;28;20027;-81
2023/08/25 01:31:04;;;;;;;19.10;11.40;;;19.40;99.90;;;18.48;100.00;100596.53;4972946;28;20035;-81
2023/08/25 01:33:32;;;;;;;14.35;8.85;;;19.30;99.90;;;18.44;100.00;100593.28;4975881;28;20062;-81
2023/08/25 01:36:25;;;;;;;11.45;9.15;;;19.40;99.90;;;18.49;100.00;100589.38;4957587;28;20046;-80
2023/08/25 01:39:08;;;;;;;12.13;8.30;;;19.40;99.90;;;18.48;100.00;100580.53;4912051;29;20052;-81
2023/08/25 01:41:46;;;;;;;14.38;9.02;;;19.40;99.90;;;18.49;100.00;100584.03;4900025;29;20058;-81
2023/08/25 01:44:22;;;;;;;11.25;7.63;;;19.40;99.90;;;18.51;100.00;100585.63;4913693;29;20040;-81
2023/08/25 01:46:57;;;;;;;16.48;9.15;;;19.40;99.90;;;18.58;100.00;100586.81;4898426;29;20734;-81
2023/08/25 01:49:26;;;;;;;21.75;9.80;;;19.40;99.90;;;18.59;100.00;100577.81;4910439;29;20056;-81
2023/08/25 01:51:54;;;;;;;17.73;9.15;;;19.40;99.90;;;18.58;100.00;100576.13;4911034;29;20040;-82
2023/08/25 01:54:21;;;;;;;16.77;8.88;;;;;;;18.52;100.00;100565.13;4914689;29;20028;-81
2023/08/25 01:56:46;;;;;;;16.83;7.78;;;19.40;99.90;;;18.51;100.00;100564.28;4909377;29;20048;-81
2023/08/25 01:59:24;;;;;;;12.20;7.93;;;19.40;99.90;;;18.49;100.00;100550.25;4925145;29;20040;-81
2023/08/25 02:01:50;;;;;;;13.02;8.45;;;19.40;99.90;;;18.50;100.00;100545.75;4902516;29;20032;-80
2023/08/25 02:04:23;;;;;;;15.38;8.63;;;19.40;99.90;;;18.50;100.00;100551.09;4904392;29;20039;-81
2023/08/25 02:06:50;;;;;;;20.92;8.00;;;19.40;99.90;;;18.45;100.00;100546.97;4902353;29;20129;-82
2023/08/25 02:09:16;;;;;;;12.43;7.80;;;19.40;99.90;;;18.53;100.00;100540.16;4914452;29;20056;-82
2023/08/25 02:11:41;;;;;;;14.93;8.00;;;19.40;99.90;;;18.58;100.00;100532.63;4915614;29;20119;-82
2023/08/25 02:14:07;;;;;;;10.75;8.55;;;19.40;99.90;;;18.59;100.00;100532.47;4912289;29;20702;-82
2023/08/25 02:16:39;;;;;;;20.20;8.30;;;;;;;18.60;100.00;100534.19;4962867;28;20093;-82
2023/08/25 02:19:05;;;;;;;10.48;7.45;;;19.40;99.90;;;18.56;100.00;100530.09;4991110;28;20037;-82
2023/08/25 02:22:17;;;;;;;15.45;7.50;;;19.40;99.90;;;18.57;100.00;100529.09;4958299;28;20641;-82
2023/08/25 02:24:46;;;;;;;11.52;8.00;;;19.40;99.90;;;18.46;100.00;100521.16;4970287;28;20023;-82
2023/08/25 02:27:38;;;;;;;12.55;7.20;;;19.40;99.90;;;18.47;100.00;100508.69;4973174;28;20347;-82
2023/08/25 02:30:05;;;;;;;13.82;7.70;;;19.40;99.90;;;18.52;100.00;100511.81;4897647;29;20047;-82
2023/08/25 02:32:45;;;;;;;12.60;7.35;;;19.40;99.90;;;18.49;100.00;100515.59;4911347;29;20079;-82
2023/08/25 02:35:11;;;;;;;17.33;7.38;;;;;;;18.54;100.00;100515.19;4895862;29;20048;-80
2023/08/25 02:38:15;;;;;;;15.45;6.80;;;19.50;99.90;;;18.55;100.00;100511.53;4894578;29;20043;-82
2023/08/25 02:40:56;;;;;;;10.73;6.97;;;19.40;99.90;;;18.49;100.00;100507.59;4906725;29;20052;-81
2023/08/25 02:43:25;;;;;;;15.02;7.10;;;19.40;99.90;;;18.55;100.00;100499.09;4911669;29;20051;-82
2023/08/25 02:46:33;;;;;;;11.38;6.55;;;19.50;99.90;;;18.57;100.00;100499.75;4911180;29;20032;-81
2023/08/25 02:49:28;;;;;;;12.40;6.90;;;19.50;99.90;;;18.62;100.00;100496.75;4880371;29;20068;-82
2023/08/25 02:51:56;;;;;;;13.63;7.45;;;19.40;99.90;;;18.58;100.00;100492.63;4863524;29;20048;-82
2023/08/25 02:54:23;;;;;;;15.40;6.90;;;19.40;99.90;;;18.60;100.00;100486.19;4881811;29;20543;-81
2023/08/25 02:56:58;;;;;;;10.88;6.30;;;;;;;18.55;100.00;100488.41;4882357;29;20067;-82
2023/08/25 02:59:24;;;;;;;10.60;6.30;;;19.50;99.90;;;18.64;100.00;100482.28;4881510;29;20045;-82
2023/08/25 03:01:50;;;;;;;14.57;6.38;;;19.40;99.90;;;18.61;100.00;100477.22;4863524;29;20070;-82
2023/08/25 03:04:25;;;;;;;12.85;6.32;;;;;;;18.68;100.00;100479.34;4865164;29;20036;-82
2023/08/25 03:07:35;;;;;;;14.15;6.78;;;19.50;99.90;;;18.67;100.00;100472.34;4878508;29;20119;-82
2023/08/25 03:10:22;;;;;;;11.23;6.50;;;;;;;18.65;100.00;100477.81;4807161;29;20081;-82
2023/08/25 03:12:57;;;;;;;;;;;19.50;99.90;;;18.55;100.00;100468.88;4826570;29;20042;-81
2023/08/25 03:15:43;;;;;;;18.80;6.72;;;;;;;18.60;100.00;100472.03;4834500;29;19916;-82
2023/08/25 03:18:38;;;;;;;15.30;6.75;;;19.50;99.90;;;18.57;100.00;100470.44;4824754;29;20106;-82
2023/08/25 03:21:14;;;;;;;11.25;6.43;;;19.50;99.90;;;18.60;100.00;100472.03;4828732;29;20045;-82
2023/08/25 03:23:41;;;;;;;13.68;6.55;;;19.50;99.90;;;18.55;100.00;100469.75;4810949;29;20030;-81
2023/08/25 03:26:07;;;;;;;13.57;6.80;;;19.40;99.90;;;18.49;100.00;100461.41;4837744;29;20048;-81
2023/08/25 03:28:45;;;;;;;15.40;6.90;;;;;;;18.44;100.00;100457.31;4870648;29;20518;-82
2023/08/25 03:31:24;;;;;;;13.07;6.68;;;19.40;99.90;;;18.47;100.00;100453.53;4869565;29;20116;-82
2023/08/25 03:33:50;;;;;;;10.65;6.40;;;19.40;99.90;;;18.46;100.00;100451.84;4854041;29;20074;-82
2023/08/25 03:36:25;;;;;;;14.43;6.95;;;;;;;18.44;100.00;100443.13;4852704;29;20124;-81
2023/08/25 03:38:54;;;;;;;15.93;6.90;;;;;;;18.41;100.00;100451.38;4852855;29;20051;-83
2023/08/25 03:41:46;;;;;;;10.82;6.75;;;19.20;99.90;;;18.31;100.00;100440.63;4868524;29;20041;-82
2023/08/25 03:44:15;;;;;;;19.83;7.50;;;19.20;99.90;;;18.34;100.00;100435.06;4828380;29;20046;-82
2023/08/25 03:46:48;;;;;;;11.55;6.50;;;19.20;99.90;;;18.34;100.00;100440.41;4848336;29;20044;-82
2023/08/25 03:49:17;;;;;;;12.45;6.68;;;;;;;18.33;100.00;100427.19;4873091;29;20036;-82
2023/08/25 03:51:56;;;;;;;11.85;6.68;;;19.20;99.90;;;18.30;100.00;100435.47;4887170;29;20041;-82
2023/08/25 03:55:27;;;;;;;12.75;7.03;;;19.10;99.90;;;18.23;100.00;100429.81;4870375;29;20048;-82
2023/08/25 03:58:19;;;;;;;13.27;6.75;;;19.10;99.90;;;18.17;100.00;100427.63;4870316;29;20548;-82
2023/08/25 04:00:54;;;;;;;11.70;7.07;;;19.00;99.90;;;18.13;100.00;100427.03;4854710;29;20501;-79
2023/08/25 04:03:19;;;;;;;13.40;7.22;;;19.00;99.90;;;18.13;100.00;100439.53;4873184;29;20033;-82
2023/08/25 04:05:45;;;;;;;13.23;6.93;;;19.00;99.90;;;18.10;100.00;100435.31;4870680;29;20630;-81
2023/08/25 04:08:11;;;;;;;13.18;6.75;;;19.00;99.90;;;18.06;100.00;100430.34;4870966;29;20970;-82
2023/08/25 04:10:37;;;;;;;12.98;7.00;;;19.00;99.90;;;18.06;100.00;100430.34;4871952;29;20062;-81
2023/08/25 04:13:03;;;;;;;15.32;7.60;;;19.00;99.90;;;18.06;100.00;100417.03;4872306;29;20056;-81
2023/08/25 04:15:37;;;;;;;12.32;7.47;;;19.00;99.90;;;18.07;100.00;100419.56;4871937;29;20096;-82
2023/08/25 04:18:05;;;;;;;13.82;7.97;;;18.90;99.90;;;18.10;100.00;100421.09;4870105;29;20043;-82
2023/08/25 04:21:14;;;;;;;11.25;7.95;;;19.00;99.90;;;18.06;100.00;100425.88;4920999;28;20045;-82
2023/08/25 04:23:40;;;;;;;15.77;7.97;;;;;;;18.12;100.00;100420.03;4967477;28;20038;-81
2023/08/25 04:26:05;;;;;;;11.88;7.57;;;18.90;99.90;;;18.16;100.00;100409.94;4989004;28;20066;-82
2023/08/25 04:28:44;;;;;;;13.10;7.38;;;;;;;18.21;100.00;100418.41;4978417;28;20040;-82
2023/08/25 04:31:09;;;;;;;12.68;8.18;;;18.90;99.90;;;18.02;100.00;100421.75;4975340;28;20053;-82
2023/08/25 04:33:35;;;;;;;15.18;7.57;;;18.90;99.90;;;18.13;100.00;100421.72;4959052;28;20114;-82
2023/08/25 04:36:24;;;;;;;13.23;7.72;;;19.00;99.90;;;18.25;100.00;100425.19;4957919;28;20046;-82
2023/08/25 04:38:51;;;;;;;15.32;7.65;;;;;;;18.18;100.00;100419.50;4969610;28;20442;-82
2023/08/25 04:41:16;;;;;;;14.27;9.23;;;19.00;99.90;;;18.38;100.00;100435.63;4976137;28;20045;-82
2023/08/25 04:43:55;;;;;;;11.40;7.60;;;;;;;18.46;100.00;100430.50;4990445;28;20136;-82
2023/08/25 04:46:21;;;;;;;12.32;7.85;;;19.10;99.90;;;18.48;100.00;100423.22;4989440;28;20042;-82
2023/08/25 04:48:47;;;;;;;13.20;8.45;;;19.20;99.90;;;18.55;100.00;100420.88;4973814;28;20037;-82
2023/08/25 04:51:37;;;;;;;16.33;8.60;;;;;;;18.89;100.00;100434.03;4958615;28;20053;-82
2023/08/25 04:54:05;;;;;;;15.15;7.63;;;19.60;99.90;;;19.36;99.86;100437.91;4991115;28;20030;-82
2023/08/25 04:56:31;;;;;;;15.70;7.40;;;19.70;99.90;;;19.32;99.38;100431.13;4973805;28;20026;-81
2023/08/25 04:59:08;;;;;;;15.13;8.10;;;20.00;99.90;;;20.39;96.16;100433.13;4956703;28;20077;-82
2023/08/25 05:01:34;;;;;;;11.43;6.60;;;20.80;99.90;;;22.52;85.86;100444.66;4962903;28;20078;-82
2023/08/25 05:04:08;;;;;;;16.70;6.20;;;22.00;99.90;;;24.72;75.38;100460.94;4972734;28;20035;-82
2023/08/25 05:06:35;;;;;;;11.07;6.45;;;23.20;99.90;;;26.09;68.78;100459.78;4955404;28;20034;-82
2023/08/25 05:09:17;;;;;;;11.50;5.75;;;24.40;99.90;;;27.28;64.49;100467.31;4956995;28;20061;-82
2023/08/25 05:11:42;;;;;;;9.93;6.10;;;24.70;99.90;;;25.54;67.36;100453.47;4999953;28;20054;-82
2023/08/25 05:14:16;;;;;;;10.77;5.63;;;24.50;99.90;;;24.82;68.88;100455.38;4953962;28;20104;-81
2023/08/25 05:16:44;;;;;;;14.55;5.97;;;24.50;99.90;;;26.56;64.99;100455.22;4967116;28;20065;-82
2023/08/25 05:19:36;;;;;;;13.70;6.10;;;25.30;99.90;;;26.91;63.25;100461.81;4967538;28;20050;-82
2023/08/25 05:22:23;;;;;;;10.50;5.18;;;26.20;99.90;;;29.99;57.33;100491.56;4907855;29;20191;-82
2023/08/25 05:24:58;;;;;;;9.52;5.28;;;27.40;99.90;;;31.97;53.43;100507.06;4906886;29;20044;-82
2023/08/25 05:27:36;;;;;;;12.57;5.13;;;;;;;33.24;49.57;100525.22;4908366;29;20050;-82
2023/08/25 05:30:37;;;;;;;11.77;5.13;;;29.40;99.90;;;30.84;52.38;100505.47;4905733;29;20594;-82
2023/08/25 05:33:49;;;;;;;11.25;4.70;;;28.90;99.90;;;28.54;56.37;100478.78;4868038;29;20297;-82
2023/08/25 05:36:15;;;;;;;6.40;4.95;;;28.10;99.90;;;27.40;59.60;100473.94;4796529;29;20059;-82
2023/08/25 05:38:59;;;;;;;;;;;;;;;;;;;;;
2023/08/25 05:41:29;;;;;;;6.80;4.93;;;;;;;26.71;60.98;100452.53;4792655;29;20066;-82
2023/08/25 05:43:55;;;;;;;8.70;4.75;;;26.60;99.90;;;27.77;59.98;100462.13;4795016;29;20095;-82
2023/08/25 05:46:20;;;;;;;11.00;4.80;;;27.10;99.90;;;31.31;52.06;100494.53;4796239;29;20077;-82
2023/08/25 05:48:57;;;;;;;7.32;4.53;;;28.20;99.90;;;32.93;49.35;100521.50;4782055;29;20039;-83
2023/08/25 05:51:24;;;;;;;7.45;4.45;;;28.90;99.90;;;30.63;51.71;100500.25;4780186;29;20039;-82
2023/08/25 05:56:23;;;;;;;12.57;4.68;;;28.30;99.90;;;27.60;57.31;100475.06;4962019;28;20043;-75
2023/08/25 05:58:49;;;;;;;11.82;4.93;;;27.60;99.90;;;26.82;59.71;100462.06;4962834;28;21190;-75
2023/08/25 06:01:15;;;;;;;9.05;4.40;;;27.10;99.90;;;26.73;60.36;100456.75;4967065;28;20667;-75
2023/08/25 06:03:41;;;;;;;9.65;4.68;;;27.20;99.90;;;30.65;53.16;100495.44;4968973;28;20042;-74
2023/08/25 06:06:07;;;;;;;6.43;4.13;;;27.80;99.90;;;30.84;51.72;100493.75;4981997;28;20029;-74
2023/08/25 06:08:33;;;;;;;7.78;4.22;;;29.00;99.90;;;34.17;45.85;100526.88;4960642;28;20022;-75
2023/08/25 06:11:01;;;;;;;10.80;4.57;;;30.20;99.90;;;35.19;43.41;100538.72;4960847;28;20838;-75
2023/08/25 06:13:26;;;;;;;11.73;4.05;;;31.30;99.90;;;35.13;42.71;100532.28;4961499;28;20543;-75
2023/08/25 06:15:52;;;;;;;10.00;4.35;;;31.70;99.90;;;34.24;44.24;100529.50;4961503;28;20022;-75
2023/08/25 06:18:18;;;;;;;14.23;4.47;;;31.60;99.90;;;32.24;47.14;100510.47;4980752;28;20034;-74
2023/08/25 06:20:44;;;;;;;10.25;4.03;;;31.20;99.90;;;31.88;48.30;100502.94;4962285;28;20030;-75
2023/08/25 06:23:13;;;;;;;8.95;4.00;;;30.70;99.90;;;31.15;49.47;100490.41;4959493;28;21218;-74
2023/08/25 06:25:38;;;;;;;8.63;3.50;;;30.40;99.90;;;31.09;49.64;100488.53;4961921;28;20027;-75
2023/08/25 06:28:05;;;;;;;10.05;4.03;;;30.00;99.90;;;29.95;51.49;100460.44;4960756;28;20117;-75
2023/08/25 06:30:32;;;;;;;10.68;4.20;;;29.70;99.90;;;29.55;52.42;100454.84;4979884;28;20042;-75
2023/08/25 06:32:58;;;;;;;6.97;3.83;;;29.20;99.90;;;28.72;54.20;100456.63;4943993;28;20094;-75
2023/08/25 06:35:25;;;;;;;10.10;4.30;;;28.70;99.90;;;27.97;55.45;100448.88;4980569;28;20030;-74
2023/08/25 06:37:50;;;;;;;7.35;4.20;;;28.20;99.90;;;27.46;56.89;100440.75;4962075;28;20035;-74
2023/08/25 06:40:16;;;;;;;9.68;4.43;;;27.80;99.90;;;27.13;57.59;100443.84;4947960;28;20532;-75
2023/08/25 06:42:42;;;;;;;9.43;4.00;;;27.70;99.90;;;28.34;55.81;100456.94;4963189;28;20505;-75
2023/08/25 06:45:09;;;;;;;9.23;4.15;;;27.90;99.90;;;30.74;51.37;100474.34;4962764;28;20104;-75
2023/08/25 06:47:35;;;;;;;7.32;3.63;;;29.20;99.90;;;33.29;46.34;100490.75;4958911;28;20086;-75
2023/08/25 06:50:08;;;;;;;5.22;3.55;;;30.90;99.90;;;35.20;42.84;100508.34;4961668;28;20035;-74
2023/08/25 06:52:36;;;;;;;6.65;3.70;;;32.50;99.90;;;36.53;40.36;100534.84;4945991;28;20023;-75
2023/08/25 06:55:02;;;;;;;8.48;3.97;;;34.10;99.30;;;37.71;39.02;100545.69;4961585;28;20041;-74
2023/08/25 06:57:29;;;;;;;7.35;3.55;;;35.30;97.50;;;38.39;37.73;100555.50;4976851;28;20453;-75
2023/08/25 06:59:54;;;;;;;9.25;4.20;;;36.30;96.10;;;39.16;36.63;100562.50;4961037;28;20498;-75
2023/08/25 07:02:20;;;;;;;7.20;3.60;;;37.10;93.90;;;39.53;35.61;100569.88;4952574;28;20126;-75
2023/08/25 07:04:46;;;;;;;6.18;3.60;;;37.70;92.70;;;39.68;35.21;100572.72;4943560;28;20058;-75
2023/08/25 07:07:14;;;;;;;6.22;3.80;;;38.10;92.00;;;39.96;34.97;100574.22;4962448;28;20464;-75
2023/08/25 07:09:42;;;;;;;9.02;3.85;;;38.60;91.30;;;40.17;34.74;100574.25;4963805;28;20030;-75
2023/08/25 07:12:08;;;;;;;8.38;3.92;;;38.90;91.20;;;40.15;34.65;100574.53;4959208;28;20097;-75
2023/08/25 07:14:34;;;;;;;11.45;3.92;;;39.00;90.20;;;40.31;34.16;100585.63;4960121;28;20030;-75
2023/08/25 07:17:00;;;;;;;11.60;3.83;;;39.30;89.90;;;40.50;33.94;100584.00;4961523;28;20093;-74
2023/08/25 07:19:26;;;;;;;5.53;3.60;;;39.60;89.30;;;40.57;33.58;100579.03;4945676;28;20558;-75
2023/08/25 07:21:54;;;;;;;9.57;3.85;;;39.70;87.80;;;40.59;33.50;100584.28;4945955;28;20057;-75
2023/08/25 07:24:20;;;;;;;11.52;4.20;;;39.90;86.80;;;40.58;33.60;100577.09;4958955;28;20042;-75
2023/08/25 07:26:46;;;;;;;7.82;4.05;;;40.00;86.50;;;40.63;33.74;100579.00;4942504;28;20513;-75
2023/08/25 07:29:12;;;;;;;6.47;4.05;;;40.00;86.10;;;40.45;33.84;100572.13;4967657;28;20462;-75
2023/08/25 07:31:37;;;;;;;8.73;4.72;;;40.10;86.20;;;40.24;34.05;100565.72;4959014;28;20512;-76
2023/08/25 07:34:03;;;;;;;9.57;5.25;;;40.00;85.60;;;39.89;34.09;100556.25;4961141;28;20592;-75
2023/08/25 07:36:29;;;;;;;11.30;4.95;;;40.00;86.00;;;39.78;34.36;100556.19;4959823;28;20493;-75
2023/08/25 07:38:55;;;;;;;14.77;5.28;;;39.80;84.60;;;39.81;34.47;100557.59;4944671;28;20043;-75
2023/08/25 07:41:25;;;;;;;7.72;4.90;;;39.90;85.40;;;40.08;34.51;100551.91;4957990;28;20034;-75
2023/08/25 07:43:51;;;;;;;11.82;5.43;;;40.10;85.40;;;40.17;34.69;100550.25;4976655;28;20517;-75
2023/08/25 07:46:17;;;;;;;10.15;5.00;;;40.20;82.60;;;40.11;34.37;100559.63;4975529;28;20031;-76
2023/08/25 07:48:42;;;;;;;12.70;5.38;;;40.20;84.00;;;39.82;34.45;100550.16;4978884;28;20104;-76
2023/08/25 07:51:12;;;;;;;12.60;5.00;;;40.00;83.20;;;39.43;34.55;100548.63;4977495;28;20027;-76
2023/08/25 07:53:38;;;;;;;7.45;4.75;;;39.80;83.90;;;39.36;35.15;100525.97;4945438;28;20030;-76
2023/08/25 07:56:04;;;;;;;11.23;4.47;;;39.80;84.00;;;39.47;35.27;100522.19;4960361;28;20042;-75
2023/08/25 07:58:29;;;;;;;9.10;4.53;;;39.90;83.80;;;39.63;34.72;100531.34;4977033;28;20113;-75
2023/08/25 08:00:55;;;;;;;9.77;3.88;;;40.10;83.90;;;39.90;34.56;100541.41;4979419;28;20053;-76
2023/08/25 08:03:21;;;;;;;11.50;4.10;;;40.10;82.90;;;39.45;35.13;100535.41;4977606;28;20165;-76
2023/08/25 08:05:47;;;;;;;9.18;3.80;;;39.90;84.30;;;39.50;35.60;100529.09;4944162;28;20062;-75
2023/08/25 08:08:13;;;;;;;10.35;4.10;;;39.80;83.20;;;39.21;35.24;100523.16;4978573;28;20033;-75
2023/08/25 08:10:39;;;;;;;10.13;3.42;;;39.60;83.60;;;38.74;35.67;100508.22;4960071;28;20042;-76
2023/08/25 08:13:10;;;;;;;9.00;4.10;;;39.30;83.30;;;38.68;35.77;100506.53;4978863;28;20499;-76
2023/08/25 08:15:36;;;;;;;10.38;3.63;;;39.10;83.80;;;38.37;35.79;100498.00;4964706;28;20728;-76
2023/08/25 08:18:02;;;;;;;8.68;3.40;;;38.80;83.60;;;38.03;36.57;100495.50;4964067;28;20121;-76
2023/08/25 08:20:28;;;;;;;5.55;3.03;;;38.50;84.30;;;37.58;37.34;100482.88;4961265;28;20495;-76
2023/08/25 08:22:53;;;;;;;6.85;2.80;;;38.20;84.40;;;37.20;37.00;100484.59;4982360;28;20037;-76
2023/08/25 08:25:19;;;;;;;5.88;2.83;;;37.80;84.40;;;36.88;37.69;100481.66;4981500;28;20052;-76
2023/08/25 08:27:48;;;;;;;9.70;3.13;;;37.50;85.20;;;36.73;38.07;100474.84;4971429;28;20538;-75
2023/08/25 08:30:16;;;;;;;6.43;2.97;;;37.40;86.20;;;36.70;38.22;100474.53;4948214;28;20034;-75
2023/08/25 08:32:42;;;;;;;6.88;2.83;;;37.20;86.80;;;36.64;38.60;100472.78;4964211;28;20081;-76
2023/08/25 08:35:08;;;;;;;8.98;2.95;;;37.10;87.60;;;36.74;38.36;100484.75;4965053;28;20110;-76
2023/08/25 08:37:35;;;;;;;5.50;3.05;;;37.10;87.20;;;36.67;38.97;100481.34;4966065;28;20100;-75
2023/08/25 08:40:10;;;;;;;7.78;2.70;;;37.00;87.40;;;36.62;38.97;100486.75;4981244;28;20042;-75
2023/08/25 08:42:39;;;;;;;8.77;3.10;;;36.90;87.80;;;36.57;38.87;100488.53;4966074;28;20045;-76
2023/08/25 08:45:11;;;;;;;8.40;3.35;;;36.70;87.60;;;35.96;39.72;100491.84;4959951;28;20043;-76
2023/08/25 08:47:37;;;;;;;7.65;3.63;;;36.30;88.30;;;35.41;40.16;100481.44;4942244;28;20068;-75
2023/08/25 08:50:06;;;;;;;6.50;3.38;;;35.80;88.80;;;34.86;41.27;100478.03;4959861;28;20094;-75
2023/08/25 08:52:36;;;;;;;8.85;3.28;;;35.30;90.20;;;34.57;42.17;100462.53;4942104;28;20035;-76
2023/08/25 08:55:09;;;;;;;6.45;3.22;;;35.00;90.70;;;34.38;43.11;100470.00;4943107;28;20050;-75
2023/08/25 08:57:34;;;;;;;5.55;2.95;;;34.70;91.20;;;34.22;43.83;100455.13;4928174;28;20086;-75
2023/08/25 09:00:08;;;;;;;7.57;3.00;;;34.30;92.60;;;34.00;45.32;100450.16;4940219;28;20094;-75
2023/08/25 09:02:35;;;;;;;6.32;3.25;;;34.10;91.80;;;33.77;44.29;100441.91;4957368;28;20511;-76
2023/08/25 09:05:07;;;;;;;6.25;3.30;;;33.80;93.20;;;33.41;45.86;100438.97;4941429;28;20054;-75
2023/08/25 09:07:40;;;;;;;8.65;3.47;;;33.40;93.40;;;32.77;47.25;100429.41;4944178;28;20458;-76
2023/08/25 09:10:07;;;;;;;8.40;3.20;;;33.10;94.10;;;32.53;47.96;100431.06;4942430;28;20541;-75
2023/08/25 09:12:36;;;;;;;8.45;3.33;;;32.90;93.80;;;32.44;47.73;100423.16;4958164;28;20053;-76
2023/08/25 09:15:07;;;;;;;11.15;3.65;;;32.80;93.80;;;32.29;48.75;100419.94;4959872;28;20186;-75
2023/08/25 09:17:34;;;;;;;6.57;3.60;;;32.60;94.40;;;32.20;48.41;100411.19;4964175;28;20034;-75
2023/08/25 09:20:12;;;;;;;11.35;3.53;;;32.40;94.60;;;31.79;49.37;100414.38;4961776;28;20465;-75
2023/08/25 09:22:43;;;;;;;9.82;3.30;;;32.30;95.60;;;31.75;50.50;100411.28;4963576;28;20026;-76
2023/08/25 09:25:09;;;;;;;8.40;3.60;;;32.20;95.80;;;31.82;49.05;100409.34;4979584;28;20038;-75
2023/08/25 09:27:35;;;;;;;8.52;2.92;;;32.20;96.00;;;31.78;50.02;100408.13;4962493;28;20125;-74
2023/08/25 09:30:04;;;;;;;7.47;3.10;;;32.10;96.10;;;31.77;50.32;100414.63;4982110;28;20037;-75
2023/08/25 09:32:30;;;;;;;6.60;3.40;;;32.00;95.80;;;31.57;50.78;100427.50;4961421;28;20028;-75
2023/08/25 09:35:21;;;;;;;8.30;3.70;;;31.80;95.80;;;31.20;51.82;100405.44;4979920;28;20034;-76
2023/08/25 09:37:47;;;;;;;7.25;3.75;;;31.60;96.80;;;31.20;52.48;100411.72;4979531;28;20043;-75
2023/08/25 09:40:15;;;;;;;9.27;3.90;;;31.60;96.80;;;31.27;51.78;100417.97;4963636;28;20118;-75
2023/08/25 09:42:48;;;;;;;12.88;4.25;;;31.70;97.50;;;31.37;51.63;100425.66;4978900;28;20062;-75
2023/08/25 09:45:20;;;;;;;9.10;3.28;;;31.80;95.90;;;31.48;49.56;100432.34;4963101;28;20039;-75
2023/08/25 09:47:49;;;;;;;10.38;3.58;;;31.80;95.20;;;31.47;49.52;100433.41;4949489;28;20057;-75
2023/08/25 09:50:19;;;;;;;6.68;3.50;;;31.80;95.30;;;31.45;49.38;100440.97;4945901;28;20031;-76
2023/08/25 09:52:48;;;;;;;7.32;3.78;;;31.80;95.60;;;31.44;49.80;100442.00;4979633;28;20023;-75
2023/08/25 09:55:17;;;;;;;9.18;4.15;;;31.70;96.30;;;31.44;50.77;100433.84;4977436;28;20038;-76
2023/08/25 09:57:48;;;;;;;9.93;4.07;;;31.80;95.80;;;31.47;50.04;100439.69;4958548;28;20034;-75
2023/08/25 10:00:15;;;;;;;7.75;3.20;;;31.80;95.80;;;31.63;49.60;100430.19;4945459;28;20525;-75
2023/08/25 10:02:42;;;;;;;8.52;3.55;;;31.90;96.40;;;31.65;49.65;100424.53;4996222;28;20038;-75
2023/08/25 10:05:12;;;;;;;8.77;3.33;;;31.90;96.20;;;31.64;49.50;100437.31;4962919;28;20158;-75
2023/08/25 10:07:42;;;;;;;11.50;3.78;;;32.00;96.30;;;31.77;50.06;100438.28;4963830;28;20686;-75
2023/08/25 10:10:12;;;;;;;7.80;3.10;;;32.00;95.30;;;31.77;48.83;100438.28;4958232;28;20058;-76
2023/08/25 10:12:40;;;;;;;8.73;3.22;;;32.00;96.30;;;31.73;49.63;100443.34;4945197;28;20050;-75
2023/08/25 10:15:15;;;;;;;7.00;3.08;;;32.00;96.10;;;31.78;49.32;100446.22;4962218;28;20042;-77
2023/08/25 10:17:48;;;;;;;7.07;2.88;;;32.00;95.50;;;31.82;48.19;100449.34;4947995;28;20057;-75
2023/08/25 10:20:18;;;;;;;11.35;3.60;;;32.10;95.10;;;31.93;48.49;100442.38;4974436;28;20766;-75
2023/08/25 10:22:50;;;;;;;6.07;2.95;;;32.20;96.10;;;32.11;49.28;100431.59;4962641;28;20101;-75
2023/08/25 10:25:21;;;;;;;8.77;3.30;;;32.30;95.90;;;32.08;49.75;100426.59;4961172;28;20062;-76
2023/08/25 10:27:48;;;;;;;7.28;2.75;;;32.30;95.20;;;32.06;48.76;100428.72;4993210;28;20034;-76
2023/08/25 10:30:20;;;;;;;7.38;3.15;;;32.30;94.80;;;32.17;47.87;100447.06;4961312;28;20023;-75
2023/08/25 10:33:11;;;;;;;7.07;3.20;;;32.40;95.60;;;32.34;47.99;100447.34;4942950;28;20086;-75